Huvudsida
METAR-TAF:

METAR-TAF

Flygplatser :

Base Aérea de Santa Cruz

Santa Cruz, Rio de Janeiro, Brasilien

latitud: 22-56S, longitud: 043-43W, höjd: 3 m

Aktuellt väderrapport

Denna rapport gjordes för 1 timme och 29 minuter sedan, klockan 22:00 UTC
Vind 5 kt från väst/sydväst
Temperatur 28°C
Fuktighet 79%
Tryck 1007 hPa
Sikt 10 km eller mer
Få moln på en höjd av 2500 ft

METAR: SBSC 192200Z 24005KT 9999 FEW025 28/24 Q1007

Tid: 20:29 (23:29 UTC)

Väderprognos

Denna rapport gjordes för 7 timmar och 29 minuter sedan, klockan 16:00 UTC
Prognos gäller från 19 kl. 18 UTC till 20 kl. 06 UTC
Vind 12 kt från nord
Sikt 10 km eller mer
Inga moln under 1 500 m eller inga cumulonimbus
Blir
från 19 kl. 19 UTC till 19 kl. 21 UTC
Vind 7 kt från sydost
Blir
från 19 kl. 22 UTC till 19 kl. 24 UTC
Vind 5 kt från nord

TAF: SBSC 191600Z 1918/2006 35012KT CAVOK TX37/1918Z TN27/2005Z BECMG 1919/1921 13007KT BECMG 1922/1924 36005KT RMK PEJ

Aktuella väderrapporter och prognoser från 4000 flygplatser (METAR- och TAF-rapporter).

De tillgängliga stationerna syns som gula och röda prickar på kartan.

För musen över prickarna för att se namnen på stationerna.

Klicka sedan för att få väderrapporter och prognoser.

För att ändra kartan: Klicka på de gröna knapparna med ett svart kors på för att zooma in; den gröna knappen med ett streck på för att zooma ut; eller på de gröna pilarna för angränsande kartor.


METAR-TAF: